Terminal Aerodrome Forecast
Issued by NWS Bismarck, ND

Home | Current Version | Previous Version | Graphics & Text | Print | Product List | Glossary On
Versions: 1 2 3 4 5 6 7 8 9 10 11 12 13 14 15 16 17 18 19 20 21 22 23 24 25
000
FTUS43 KBIS 240521
TAFBIS
TAF
KBIS 240521Z 2406/2506 30006KT P6SM SKC
     FM241200 27007KT P6SM FEW035
     FM241800 30012KT P6SM SCT060
     FM250200 07004KT P6SM FEW080=

USA.gov is the U.S. government's official web portal to all federal, state and local government web resources and services.